This is the latest recevied weather packets stored in our database for station/object WV5G-13. If no packets are shown the sender has not sent any weather packets the latest 10 day(s).
| Time | Temp. | Humidity | Pressure | Rain* | Wind** | Luminosity | Snow |
|---|---|---|---|---|---|---|---|
| 1777504323 | 20° C | 30% | 1012.7 hPa | 0 mm | - | 303 W/m² | - |
| 1777504018 | 20.56° C | 29% | 1012.3 hPa | 0 mm | - | 322 W/m² | - |
| 1777503715 | 20° C | 29% | 1012.5 hPa | 0 mm | - | 345 W/m² | - |
| 1777503412 | 20.56° C | 29% | 1012.5 hPa | 0 mm | - | 372 W/m² | - |
| 1777503107 | 20.56° C | 29% | 1012.3 hPa | 0 mm | - | 410 W/m² | - |
| 1777502805 | 20° C | 29% | 1012.5 hPa | 0 mm | - | 318 W/m² | - |
| 1777502502 | 20° C | 30% | 1012.5 hPa | 0 mm | - | 395 W/m² | - |
| 1777502199 | 18.89° C | 31% | 1012.1 hPa | 0 mm | - | 210 W/m² | - |
| 1777501897 | 19.44° C | 30% | 1012.1 hPa | 0 mm | - | 208 W/m² | - |
| 1777501593 | 20° C | 28% | 1012.2 hPa | 0 mm | - | 286 W/m² | - |
| 1777501290 | 21.11° C | 27% | 1012.3 hPa | 0 mm | - | 483 W/m² | - |
| 1777500988 | 20° C | 28% | 1012.7 hPa | 0 mm | - | 490 W/m² | - |
| 1777500686 | 20.56° C | 28% | 1012.3 hPa | 0 mm | - | 487 W/m² | - |
| 1777500382 | 20.56° C | 27% | 1012.5 hPa | 0 mm | - | 493 W/m² | - |
| 1777500078 | 20.56° C | 27% | 1012.5 hPa | 0 mm | - | 535 W/m² | - |
| 1777499775 | 20.56° C | 27% | 1012.9 hPa | 0 mm | - | 528 W/m² | - |
| 1777499471 | 20.56° C | 27% | 1012.9 hPa | 0 mm | - | 573 W/m² | - |
| 1777499170 | 20.56° C | 27% | 1012.7 hPa | 0 mm | - | 585 W/m² | - |
| 1777498866 | 20° C | 28% | 1012.8 hPa | 0 mm | - | 555 W/m² | - |
| 1777498563 | 20.56° C | 27% | 1012.7 hPa | 0 mm | - | 608 W/m² | - |
| 1777498259 | 20° C | 28% | 1013.2 hPa | 0 mm | - | 622 W/m² | - |
| 1777497957 | 20° C | 28% | 1013.1 hPa | 0 mm | - | 633 W/m² | - |
| 1777497653 | 20° C | 27% | 1013 hPa | 0 mm | - | 646 W/m² | - |
| 1777497350 | 20.56° C | 26% | 1013.2 hPa | 0 mm | - | 660 W/m² | - |
| 1777497045 | 20° C | 27% | 1013.6 hPa | 0 mm | - | 674 W/m² | - |
* Rain latest hour (hover to see other rain measurements)
** Current wind speed in m/s (hover to see current wind gust speed)